createdAt,value
2023-02-19T00:01:13.689Z,11.40
2023-02-19T00:04:17.401Z,11.26
2023-02-19T00:07:19.686Z,11.14
2023-02-19T00:10:22.534Z,11.26
2023-02-19T00:13:24.974Z,11.20
2023-02-19T00:16:28.828Z,11.22
2023-02-19T00:19:31.250Z,11.21
2023-02-19T00:22:33.887Z,11.18
2023-02-19T00:25:37.820Z,11.21
2023-02-19T00:28:40.410Z,11.14
2023-02-19T00:31:46.125Z,11.08
2023-02-19T00:34:48.881Z,11.08
2023-02-19T00:37:51.278Z,10.93
2023-02-19T00:40:54.048Z,10.89
2023-02-19T00:43:59.617Z,10.79
2023-02-19T00:47:02.214Z,10.83
2023-02-19T00:50:06.435Z,10.84
2023-02-19T00:53:09.717Z,10.85
2023-02-19T00:56:12.184Z,10.82
2023-02-19T00:59:15.007Z,10.69
2023-02-19T01:02:17.371Z,10.59
2023-02-19T01:05:20.031Z,10.65
2023-02-19T01:08:22.722Z,10.68
2023-02-19T01:11:25.461Z,10.77
2023-02-19T01:14:28.105Z,10.68
2023-02-19T01:17:30.724Z,10.64
2023-02-19T01:20:37.842Z,10.55
2023-02-19T01:23:41.168Z,10.50
2023-02-19T01:26:43.668Z,10.37
2023-02-19T01:29:46.361Z,10.40
2023-02-19T01:32:48.944Z,10.46
2023-02-19T01:35:53.299Z,10.50
2023-02-19T01:38:55.957Z,10.59
2023-02-19T01:41:58.654Z,10.61
2023-02-19T01:45:21.267Z,10.45
2023-02-19T01:48:26.517Z,10.41
2023-02-19T01:51:30.854Z,10.53
2023-02-19T01:54:36.009Z,10.46
2023-02-19T01:57:41.977Z,10.20
2023-02-19T02:00:44.814Z,10.17
2023-02-19T02:03:48.881Z,10.12
2023-02-19T02:06:56.493Z,10.05
2023-02-19T02:10:17.960Z,10.06
2023-02-19T02:13:20.685Z,10.19
2023-02-19T02:16:23.021Z,10.34
2023-02-19T02:19:25.871Z,10.33
2023-02-19T02:22:32.548Z,10.46
2023-02-19T02:25:55.542Z,10.62
2023-02-19T02:29:01.482Z,10.60
2023-02-19T02:32:25.025Z,10.65
2023-02-19T02:35:32.964Z,10.58
2023-02-19T02:38:39.392Z,10.52
2023-02-19T02:41:45.934Z,10.56
2023-02-19T02:45:07.335Z,10.71
2023-02-19T02:48:24.163Z,10.71
2023-02-19T02:51:29.178Z,10.66
2023-02-19T02:54:52.519Z,10.56
2023-02-19T02:57:55.631Z,10.47
2023-02-19T03:01:19.784Z,10.42
2023-02-19T03:04:27.933Z,10.44
2023-02-19T03:07:34.744Z,10.32
2023-02-19T03:10:37.700Z,10.31
2023-02-19T03:13:59.183Z,10.24
2023-02-19T03:17:37.468Z,10.26
2023-02-19T03:20:43.701Z,10.14
2023-02-19T03:24:05.881Z,10.08
2023-02-19T03:27:10.487Z,10.11
2023-02-19T03:30:20.398Z,10.16
2023-02-19T03:33:26.525Z,10.07
2023-02-19T03:36:34.931Z,10.10
2023-02-19T03:39:44.327Z,10.25
2023-02-19T03:42:55.079Z,10.21
2023-02-19T03:46:06.668Z,10.17
2023-02-19T03:49:18.288Z,10.04
2023-02-19T03:52:25.072Z,10.02
2023-02-19T03:55:32.661Z,9.89
2023-02-19T03:58:40.234Z,9.95
2023-02-19T04:01:52.880Z,9.86
2023-02-19T04:05:03.608Z,9.88
2023-02-19T04:08:17.288Z,9.85
2023-02-19T04:11:22.428Z,9.87
2023-02-19T04:14:51.313Z,9.79
2023-02-19T04:17:59.427Z,9.82
2023-02-19T04:21:02.783Z,9.99
2023-02-19T04:24:12.165Z,10.06
2023-02-19T04:27:14.850Z,9.99
2023-02-19T04:30:19.779Z,9.87
2023-02-19T04:33:22.123Z,9.81
2023-02-19T04:36:24.694Z,9.66
2023-02-19T04:39:27.297Z,9.40
2023-02-19T04:42:30.356Z,9.19
2023-02-19T04:45:32.790Z,9.11
2023-02-19T04:48:35.452Z,8.86
2023-02-19T04:51:38.558Z,8.78
2023-02-19T04:54:41.281Z,8.90
2023-02-19T04:57:43.690Z,8.76
2023-02-19T05:00:46.642Z,8.85
2023-02-19T05:03:49.474Z,9.02
2023-02-19T05:06:52.164Z,9.32
2023-02-19T05:09:54.792Z,9.40
2023-02-19T05:12:58.110Z,9.47
2023-02-19T05:16:01.837Z,9.61
2023-02-19T05:19:04.484Z,9.73
2023-02-19T05:22:06.848Z,9.70
2023-02-19T05:25:09.490Z,9.49
2023-02-19T05:28:17.605Z,9.47
2023-02-19T05:31:21.310Z,9.41
2023-02-19T05:34:23.768Z,9.42
2023-02-19T05:37:26.577Z,9.55
2023-02-19T05:40:29.303Z,9.64
2023-02-19T05:43:32.038Z,9.62
2023-02-19T05:46:34.483Z,9.61
2023-02-19T05:49:37.219Z,9.66
2023-02-19T05:52:39.660Z,9.60
2023-02-19T05:55:42.290Z,9.66
2023-02-19T05:58:45.063Z,9.69
2023-02-19T06:01:48.383Z,9.68
2023-02-19T06:04:50.934Z,9.76
2023-02-19T06:07:53.351Z,9.82
2023-02-19T06:10:56.013Z,9.84
2023-02-19T06:13:58.438Z,9.85
2023-02-19T06:17:01.204Z,9.96
2023-02-19T06:20:05.086Z,10.14
2023-02-19T06:23:07.792Z,10.30
2023-02-19T06:26:16.017Z,10.25
2023-02-19T06:29:18.661Z,10.17
2023-02-19T06:32:21.150Z,10.09
2023-02-19T06:35:23.882Z,10.04
2023-02-19T06:38:26.782Z,10.01
2023-02-19T06:41:29.411Z,9.99
2023-02-19T06:44:31.926Z,10.00
2023-02-19T06:47:34.678Z,9.99
2023-02-19T06:50:37.064Z,10.07
2023-02-19T06:53:40.052Z,10.19
2023-02-19T06:56:42.607Z,10.28
2023-02-19T06:59:45.894Z,10.19
2023-02-19T07:02:48.340Z,10.14
2023-02-19T07:05:51.005Z,10.15
2023-02-19T07:08:54.586Z,10.13
2023-02-19T07:11:57.261Z,10.23
2023-02-19T07:14:59.694Z,10.23
2023-02-19T07:18:02.441Z,10.30
2023-02-19T07:21:06.188Z,10.40
2023-02-19T07:24:10.298Z,10.54
2023-02-19T07:27:12.822Z,10.59
2023-02-19T07:30:15.581Z,10.69
2023-02-19T07:33:18.102Z,10.87
2023-02-19T07:36:21.837Z,10.99
2023-02-19T07:39:24.232Z,10.95
2023-02-19T07:42:26.831Z,11.00
2023-02-19T07:45:29.648Z,11.05
2023-02-19T07:48:32.538Z,11.12
2023-02-19T07:51:34.898Z,10.93
2023-02-19T07:54:37.741Z,10.68
2023-02-19T07:57:40.107Z,10.61
2023-02-19T08:00:42.866Z,10.77
2023-02-19T08:03:46.226Z,10.86
2023-02-19T08:06:49.772Z,10.88
2023-02-19T08:10:12.306Z,10.88
2023-02-19T08:13:27.951Z,10.97
2023-02-19T08:16:42.554Z,10.91
2023-02-19T08:19:45.739Z,10.95
2023-02-19T08:22:48.606Z,10.83
2023-02-19T08:25:51.736Z,10.66
2023-02-19T08:28:54.671Z,10.49
2023-02-19T08:31:57.126Z,10.27
2023-02-19T08:34:59.713Z,10.17
2023-02-19T08:38:02.673Z,10.11
2023-02-19T08:41:10.629Z,10.05
2023-02-19T08:44:13.625Z,9.88
2023-02-19T08:47:16.312Z,9.92
2023-02-19T08:50:18.868Z,10.07
2023-02-19T08:53:21.972Z,10.24
2023-02-19T08:56:24.346Z,10.46
2023-02-19T08:59:28.559Z,10.39
2023-02-19T09:02:31.318Z,10.30
2023-02-19T09:05:33.914Z,10.31
2023-02-19T09:08:36.186Z,10.15
2023-02-19T09:11:39.340Z,10.14
2023-02-19T09:14:41.800Z,10.07
2023-02-19T09:17:44.483Z,10.00
2023-02-19T09:20:46.932Z,9.88
2023-02-19T09:23:49.645Z,9.83
2023-02-19T09:26:53.294Z,9.76
2023-02-19T09:29:56.107Z,9.82
2023-02-19T09:32:58.508Z,9.88
2023-02-19T09:36:01.618Z,10.00
2023-02-19T09:39:06.592Z,10.11
2023-02-19T09:42:12.786Z,10.13
2023-02-19T09:45:26.142Z,10.25
2023-02-19T09:48:29.038Z,10.48
2023-02-19T09:51:32.742Z,10.60
2023-02-19T09:54:37.225Z,10.72
2023-02-19T09:57:40.217Z,11.17
2023-02-19T10:00:42.986Z,11.66
2023-02-19T10:03:48.022Z,12.20
2023-02-19T10:06:51.487Z,12.37
2023-02-19T10:09:59.390Z,12.84
2023-02-19T10:13:13.160Z,12.62
2023-02-19T10:16:17.690Z,12.70
2023-02-19T10:19:20.047Z,12.78
2023-02-19T10:22:23.028Z,13.07
2023-02-19T10:25:25.313Z,13.46
2023-02-19T10:28:33.619Z,13.86
2023-02-19T10:31:36.019Z,14.25
2023-02-19T10:34:38.946Z,14.26
2023-02-19T10:37:48.877Z,14.16
2023-02-19T10:40:57.181Z,14.02
2023-02-19T10:44:16.277Z,13.84
2023-02-19T10:47:22.614Z,13.66
2023-02-19T10:50:27.162Z,13.40
2023-02-19T10:53:39.774Z,13.34
2023-02-19T10:56:42.319Z,13.25
2023-02-19T10:59:53.129Z,13.28
2023-02-19T11:03:14.167Z,13.35
2023-02-19T11:06:18.530Z,13.46
2023-02-19T11:09:24.045Z,13.55
2023-02-19T11:12:30.894Z,13.64
2023-02-19T11:15:34.593Z,13.80
2023-02-19T11:18:37.900Z,13.89
2023-02-19T11:21:40.407Z,13.92
2023-02-19T11:24:47.874Z,13.95
2023-02-19T11:27:54.503Z,13.92
2023-02-19T11:31:13.218Z,13.96
2023-02-19T11:34:21.107Z,13.87
2023-02-19T11:37:23.736Z,13.93
2023-02-19T11:40:32.756Z,14.07
2023-02-19T11:43:53.815Z,14.13
2023-02-19T11:47:15.122Z,14.18
2023-02-19T11:50:36.837Z,14.15
2023-02-19T11:53:47.080Z,14.22
2023-02-19T11:57:11.678Z,14.25
2023-02-19T12:00:27.014Z,14.20
2023-02-19T12:03:42.096Z,14.28
2023-02-19T12:06:53.542Z,14.39
2023-02-19T12:10:05.651Z,14.57
2023-02-19T12:13:28.049Z,14.59
2023-02-19T12:16:52.609Z,14.63
2023-02-19T12:20:24.516Z,14.47
2023-02-19T12:23:39.000Z,14.47
2023-02-19T12:26:41.312Z,14.49
2023-02-19T12:29:49.814Z,14.63
2023-02-19T12:32:55.213Z,14.61
2023-02-19T12:36:00.953Z,14.60
2023-02-19T12:39:12.157Z,14.57
2023-02-19T12:42:33.488Z,14.69
2023-02-19T12:45:36.167Z,14.75
2023-02-19T12:48:39.301Z,15.18
2023-02-19T12:51:47.112Z,15.17
2023-02-19T12:54:54.171Z,13.63
2023-02-19T12:58:01.433Z,13.04
2023-02-19T13:01:05.569Z,12.87
2023-02-19T13:04:12.540Z,12.82
2023-02-19T13:07:27.886Z,12.75
2023-02-19T13:10:30.781Z,12.67
2023-02-19T13:13:33.478Z,12.54
2023-02-19T13:16:39.394Z,12.60
2023-02-19T13:19:42.821Z,12.97
2023-02-19T13:23:07.466Z,13.12
2023-02-19T13:26:29.773Z,13.14
2023-02-19T13:29:32.134Z,13.00
2023-02-19T13:32:37.874Z,13.25
2023-02-19T13:36:01.351Z,12.73
2023-02-19T13:39:07.472Z,12.30
2023-02-19T13:42:23.501Z,12.09
2023-02-19T13:45:29.174Z,11.85
2023-02-19T13:48:36.082Z,11.68
2023-02-19T13:51:39.289Z,11.55
2023-02-19T13:54:41.750Z,11.26
2023-02-19T13:57:44.929Z,10.83
2023-02-19T14:00:51.721Z,10.80
2023-02-19T14:04:09.841Z,10.78
2023-02-19T14:07:12.451Z,10.76
2023-02-19T14:10:35.381Z,10.81
2023-02-19T14:13:50.742Z,10.81
2023-02-19T14:17:05.652Z,10.83
2023-02-19T14:20:09.199Z,10.82
2023-02-19T14:23:16.507Z,11.01
2023-02-19T14:26:19.310Z,11.12
2023-02-19T14:29:22.703Z,11.33
2023-02-19T14:32:26.000Z,11.46
2023-02-19T14:35:36.330Z,11.45
2023-02-19T14:38:44.596Z,11.46
2023-02-19T14:41:57.488Z,11.58
2023-02-19T14:45:03.018Z,11.77
2023-02-19T14:48:06.356Z,11.83
2023-02-19T14:51:35.045Z,11.92
2023-02-19T14:54:38.652Z,12.00
2023-02-19T14:57:43.726Z,12.01
2023-02-19T15:00:47.171Z,11.70
2023-02-19T15:03:49.661Z,11.35
2023-02-19T15:06:56.660Z,11.18
2023-02-19T15:10:04.942Z,11.01
2023-02-19T15:13:12.092Z,10.83
2023-02-19T15:16:18.798Z,10.70
2023-02-19T15:19:22.425Z,10.54
2023-02-19T15:22:26.026Z,10.50
2023-02-19T15:25:36.955Z,10.45
2023-02-19T15:28:39.313Z,10.47
2023-02-19T15:32:00.944Z,10.47
2023-02-19T15:35:04.500Z,10.43
2023-02-19T15:38:12.493Z,10.32
2023-02-19T15:41:19.763Z,10.29
2023-02-19T15:44:28.642Z,10.26
2023-02-19T15:47:37.840Z,10.15
2023-02-19T15:50:44.159Z,10.10
2023-02-19T15:53:54.140Z,10.09
2023-02-19T15:56:59.472Z,10.15
2023-02-19T16:00:07.164Z,10.08
2023-02-19T16:03:17.857Z,10.05
2023-02-19T16:06:21.999Z,10.05
2023-02-19T16:09:32.031Z,10.03
2023-02-19T16:12:34.977Z,9.99
2023-02-19T16:15:39.470Z,9.92
2023-02-19T16:18:46.694Z,9.91
2023-02-19T16:21:49.758Z,9.95
2023-02-19T16:24:54.904Z,9.91
2023-02-19T16:27:57.897Z,9.91
2023-02-19T16:31:02.276Z,10.01
2023-02-19T16:34:37.093Z,9.95
2023-02-19T16:37:41.173Z,9.82
2023-02-19T16:40:50.888Z,9.60
2023-02-19T16:43:53.790Z,9.34
2023-02-19T16:47:04.748Z,8.98
2023-02-19T16:50:13.327Z,8.84
2023-02-19T16:53:24.919Z,8.81
2023-02-19T16:56:27.852Z,8.78
2023-02-19T16:59:30.911Z,8.81
2023-02-19T17:02:34.913Z,8.75
2023-02-19T17:05:38.632Z,8.70
2023-02-19T17:08:42.393Z,8.64
2023-02-19T17:11:45.113Z,8.62
2023-02-19T17:14:47.957Z,8.62
2023-02-19T17:17:50.725Z,8.56
2023-02-19T17:21:02.595Z,8.55
2023-02-19T17:24:05.359Z,8.45
2023-02-19T17:27:10.538Z,8.44
2023-02-19T17:30:15.611Z,8.29
2023-02-19T17:33:20.276Z,8.25
2023-02-19T17:36:26.670Z,8.21
2023-02-19T17:39:29.587Z,8.18
2023-02-19T17:42:32.197Z,8.07
2023-02-19T17:45:35.158Z,8.03
2023-02-19T17:48:37.576Z,8.04
2023-02-19T17:51:44.037Z,8.08
2023-02-19T17:54:46.788Z,8.11
2023-02-19T17:57:50.785Z,7.95
2023-02-19T18:00:53.675Z,7.76
2023-02-19T18:03:56.480Z,7.61
2023-02-19T18:06:59.133Z,7.65
2023-02-19T18:10:02.884Z,7.84
2023-02-19T18:13:07.430Z,8.14
2023-02-19T18:16:10.528Z,8.31
2023-02-19T18:19:13.217Z,8.31
2023-02-19T18:22:16.816Z,8.31
2023-02-19T18:25:19.882Z,8.27
2023-02-19T18:28:23.042Z,8.29
2023-02-19T18:31:25.900Z,8.34
2023-02-19T18:34:28.869Z,8.30
2023-02-19T18:37:32.890Z,8.23
2023-02-19T18:40:36.148Z,8.19
2023-02-19T18:43:40.192Z,8.17
2023-02-19T18:46:43.056Z,8.03
2023-02-19T18:49:49.273Z,8.05
2023-02-19T18:52:53.199Z,7.96
2023-02-19T18:55:56.965Z,7.86
2023-02-19T18:59:00.418Z,7.78
2023-02-19T19:02:06.337Z,7.67
2023-02-19T19:05:09.010Z,7.61
2023-02-19T19:08:11.499Z,7.78
2023-02-19T19:11:14.615Z,7.75
2023-02-19T19:14:17.338Z,7.78
2023-02-19T19:17:19.987Z,7.74
2023-02-19T19:20:23.311Z,7.77
2023-02-19T19:23:26.377Z,7.82
2023-02-19T19:26:28.970Z,7.81
2023-02-19T19:29:32.049Z,7.76
2023-02-19T19:32:34.822Z,7.73
2023-02-19T19:35:37.879Z,7.71
2023-02-19T19:38:41.326Z,7.71
2023-02-19T19:41:44.380Z,7.62
2023-02-19T19:44:47.230Z,7.54
2023-02-19T19:47:50.164Z,7.59
2023-02-19T19:50:54.863Z,7.64
2023-02-19T19:53:58.440Z,7.67
2023-02-19T19:57:01.069Z,7.72
2023-02-19T20:00:05.231Z,7.71
2023-02-19T20:03:17.861Z,7.76
2023-02-19T20:06:25.715Z,7.76
2023-02-19T20:09:29.146Z,7.78
2023-02-19T20:12:32.412Z,7.78
2023-02-19T20:15:35.137Z,7.76
2023-02-19T20:18:38.353Z,7.70
2023-02-19T20:21:44.261Z,7.75
2023-02-19T20:24:51.590Z,7.72
2023-02-19T20:27:54.425Z,7.74
2023-02-19T20:30:57.589Z,7.73
2023-02-19T20:34:00.517Z,7.69
2023-02-19T20:37:03.127Z,7.69
2023-02-19T20:40:06.158Z,7.61
2023-02-19T20:43:09.192Z,7.59
2023-02-19T20:46:12.375Z,7.53
2023-02-19T20:49:16.678Z,7.44
2023-02-19T20:52:20.857Z,7.41
2023-02-19T20:55:24.904Z,7.28
2023-02-19T20:58:27.589Z,7.21
2023-02-19T21:01:30.531Z,7.08
2023-02-19T21:04:33.514Z,6.94
2023-02-19T21:07:36.354Z,6.82
2023-02-19T21:10:39.117Z,6.78
2023-02-19T21:13:42.653Z,6.78
2023-02-19T21:16:45.546Z,6.65
2023-02-19T21:19:50.236Z,6.53
2023-02-19T21:22:52.879Z,6.43
2023-02-19T21:25:55.777Z,6.29
2023-02-19T21:28:58.365Z,6.15
2023-02-19T21:32:01.323Z,6.04
2023-02-19T21:35:04.205Z,5.91
2023-02-19T21:38:07.097Z,5.89
2023-02-19T21:41:09.510Z,5.79
2023-02-19T21:44:12.460Z,5.75
2023-02-19T21:47:14.830Z,5.69
2023-02-19T21:50:20.245Z,5.68
2023-02-19T21:53:22.897Z,5.69
2023-02-19T21:56:29.433Z,5.53
2023-02-19T21:59:31.840Z,5.45
2023-02-19T22:02:34.603Z,5.45
2023-02-19T22:05:37.314Z,5.42
2023-02-19T22:08:39.649Z,5.38
2023-02-19T22:11:42.524Z,5.38
2023-02-19T22:14:45.239Z,5.41
2023-02-19T22:17:47.912Z,5.37
2023-02-19T22:20:50.314Z,5.33
2023-02-19T22:23:53.649Z,5.34
2023-02-19T22:26:56.714Z,5.32
2023-02-19T22:29:59.369Z,5.23
2023-02-19T22:33:01.767Z,5.19
2023-02-19T22:36:04.576Z,5.20
2023-02-19T22:39:07.848Z,5.12
2023-02-19T22:42:10.745Z,5.05
2023-02-19T22:45:13.755Z,4.98
2023-02-19T22:48:28.376Z,4.93
2023-02-19T22:51:32.649Z,4.82
2023-02-19T22:54:36.180Z,4.84
2023-02-19T22:57:38.523Z,4.92
2023-02-19T23:00:42.363Z,4.98
2023-02-19T23:03:52.533Z,5.00
2023-02-19T23:06:55.238Z,4.97
2023-02-19T23:09:57.584Z,4.97
2023-02-19T23:13:00.477Z,4.91
2023-02-19T23:16:04.722Z,4.85
2023-02-19T23:19:11.385Z,4.82
2023-02-19T23:22:13.724Z,4.83
2023-02-19T23:25:16.415Z,4.78
2023-02-19T23:28:18.826Z,4.75
2023-02-19T23:31:21.651Z,4.77
2023-02-19T23:34:24.533Z,4.69
2023-02-19T23:37:27.122Z,4.66
2023-02-19T23:40:29.580Z,4.61
2023-02-19T23:43:32.244Z,4.56
2023-02-19T23:46:35.002Z,4.53
2023-02-19T23:49:38.101Z,4.48
2023-02-19T23:52:40.500Z,4.44
2023-02-19T23:55:43.273Z,4.34
2023-02-19T23:58:45.604Z,4.27
